logo
Search for airport 
image banner adimage banner adimage banner ad
image banner ad

SKPZ - Paz De Ariporo

Located in Paz de Ariporo, Colombia

ICAO - SKPZ, IATA - PZA

Data provided by Airmate  

General information

Coordinates: N5°52'43" W71°53'6"
Elevation is 878 feet MSL.
Magnetic variation is -9° East
View others Airports in Casanare

Operational data

Special qualification required
Current time UTC:
Current local time:
Weather at : - ( 0 km )
METAR: PAHX 162002Z AUTO 20008KT 10SM -RA BKN014 OVC023 09/08 A2981 RMK AO2 P0000
View NOTAMs / SUP AIP / TFR affecting this airport [VIEW]
Communications frequencies: [VIEW]

Runways:

RWY identifierQFULength (ft)Width (ft)SurfaceLDA (ft)
0433°498698ASP
22213°498698ASP

Airport contact information

Address: Paz de Ariporo Colombia

Satellite view of SKPZ